sensor_id;sensor_type;location;lat;lon;timestamp;temperature;humidity
1994;DHT22;998;49.906;10.908;2022-11-04T00:02:05;10.90;99.90
1994;DHT22;998;49.906;10.908;2022-11-04T00:04:34;10.90;99.90
1994;DHT22;998;49.906;10.908;2022-11-04T00:07:01;10.90;99.90
1994;DHT22;998;49.906;10.908;2022-11-04T00:09:49;10.90;99.90
1994;DHT22;998;49.906;10.908;2022-11-04T00:12:16;10.90;99.90
1994;DHT22;998;49.906;10.908;2022-11-04T00:14:51;10.90;99.90
1994;DHT22;998;49.906;10.908;2022-11-04T00:17:18;11.00;99.90
1994;DHT22;998;49.906;10.908;2022-11-04T00:19:48;11.00;99.90
1994;DHT22;998;49.906;10.908;2022-11-04T00:22:33;10.90;99.90
1994;DHT22;998;49.906;10.908;2022-11-04T00:25:17;10.90;99.90
1994;DHT22;998;49.906;10.908;2022-11-04T00:28:04;10.90;99.90
1994;DHT22;998;49.906;10.908;2022-11-04T00:30:53;10.90;99.90
1994;DHT22;998;49.906;10.908;2022-11-04T00:33:20;10.90;99.90
1994;DHT22;998;49.906;10.908;2022-11-04T00:35:55;11.00;99.90
1994;DHT22;998;49.906;10.908;2022-11-04T00:38:24;10.90;99.90
1994;DHT22;998;49.906;10.908;2022-11-04T00:40:51;11.00;99.90
1994;DHT22;998;49.906;10.908;2022-11-04T00:43:19;11.00;99.90
1994;DHT22;998;49.906;10.908;2022-11-04T00:45:46;11.00;99.90
1994;DHT22;998;49.906;10.908;2022-11-04T00:48:14;10.90;99.90
1994;DHT22;998;49.906;10.908;2022-11-04T00:50:41;11.00;99.90
1994;DHT22;998;49.906;10.908;2022-11-04T00:53:10;11.00;99.90
1994;DHT22;998;49.906;10.908;2022-11-04T00:55:37;11.00;99.90
1994;DHT22;998;49.906;10.908;2022-11-04T00:58:05;11.00;99.90
1994;DHT22;998;49.906;10.908;2022-11-04T01:00:32;11.00;99.90
1994;DHT22;998;49.906;10.908;2022-11-04T01:02:59;11.00;99.90
1994;DHT22;998;49.906;10.908;2022-11-04T01:05:27;11.00;99.90
1994;DHT22;998;49.906;10.908;2022-11-04T01:07:56;11.00;99.90
1994;DHT22;998;49.906;10.908;2022-11-04T01:10:25;11.00;99.90
1994;DHT22;998;49.906;10.908;2022-11-04T01:12:52;11.00;99.90
1994;DHT22;998;49.906;10.908;2022-11-04T01:15:19;11.00;99.90
1994;DHT22;998;49.906;10.908;2022-11-04T01:17:47;11.00;99.90
1994;DHT22;998;49.906;10.908;2022-11-04T01:20:14;11.00;99.90
1994;DHT22;998;49.906;10.908;2022-11-04T01:22:42;11.00;99.90
1994;DHT22;998;49.906;10.908;2022-11-04T01:25:09;11.00;99.90
1994;DHT22;998;49.906;10.908;2022-11-04T01:27:38;11.00;99.90
1994;DHT22;998;49.906;10.908;2022-11-04T01:30:07;10.90;99.90
1994;DHT22;998;49.906;10.908;2022-11-04T01:32:35;10.90;99.90
1994;DHT22;998;49.906;10.908;2022-11-04T01:35:02;10.90;99.90
1994;DHT22;998;49.906;10.908;2022-11-04T01:37:30;10.90;99.90
1994;DHT22;998;49.906;10.908;2022-11-04T01:39:57;10.90;99.90
1994;DHT22;998;49.906;10.908;2022-11-04T01:42:25;10.90;99.90
1994;DHT22;998;49.906;10.908;2022-11-04T01:44:55;11.00;99.90
1994;DHT22;998;49.906;10.908;2022-11-04T01:47:30;11.00;99.90
1994;DHT22;998;49.906;10.908;2022-11-04T01:50:02;11.10;99.90
1994;DHT22;998;49.906;10.908;2022-11-04T01:52:34;11.20;99.90
1994;DHT22;998;49.906;10.908;2022-11-04T01:55:09;11.20;99.90
1994;DHT22;998;49.906;10.908;2022-11-04T01:57:41;11.20;99.90
1994;DHT22;998;49.906;10.908;2022-11-04T02:00:13;11.10;99.90
1994;DHT22;998;49.906;10.908;2022-11-04T02:02:49;11.20;99.90
1994;DHT22;998;49.906;10.908;2022-11-04T02:05:18;11.20;99.90
1994;DHT22;998;49.906;10.908;2022-11-04T02:07:49;11.20;99.90
1994;DHT22;998;49.906;10.908;2022-11-04T02:10:19;11.20;99.90
1994;DHT22;998;49.906;10.908;2022-11-04T02:12:48;11.20;99.90
1994;DHT22;998;49.906;10.908;2022-11-04T02:15:19;11.20;99.90
1994;DHT22;998;49.906;10.908;2022-11-04T02:18:29;11.20;99.90
1994;DHT22;998;49.906;10.908;2022-11-04T02:21:15;11.30;99.90
1994;DHT22;998;49.906;10.908;2022-11-04T02:24:26;11.30;99.90
1994;DHT22;998;49.906;10.908;2022-11-04T02:27:20;11.30;99.90
1994;DHT22;998;49.906;10.908;2022-11-04T02:30:08;11.30;99.90
1994;DHT22;998;49.906;10.908;2022-11-04T02:33:16;11.30;99.90
1994;DHT22;998;49.906;10.908;2022-11-04T02:35:52;11.30;99.90
1994;DHT22;998;49.906;10.908;2022-11-04T02:38:30;11.30;99.90
1994;DHT22;998;49.906;10.908;2022-11-04T02:41:05;11.30;99.90
1994;DHT22;998;49.906;10.908;2022-11-04T02:43:42;11.20;99.90
1994;DHT22;998;49.906;10.908;2022-11-04T02:46:17;11.20;99.90
1994;DHT22;998;49.906;10.908;2022-11-04T02:48:47;11.20;99.90
1994;DHT22;998;49.906;10.908;2022-11-04T02:51:20;11.20;99.90
1994;DHT22;998;49.906;10.908;2022-11-04T02:53:59;11.20;99.90
1994;DHT22;998;49.906;10.908;2022-11-04T02:56:30;11.20;99.90
1994;DHT22;998;49.906;10.908;2022-11-04T02:59:02;11.20;99.90
1994;DHT22;998;49.906;10.908;2022-11-04T03:01:33;11.20;99.90
1994;DHT22;998;49.906;10.908;2022-11-04T03:04:10;11.20;99.90
1994;DHT22;998;49.906;10.908;2022-11-04T03:06:40;11.20;99.90
1994;DHT22;998;49.906;10.908;2022-11-04T03:09:10;11.20;99.90
1994;DHT22;998;49.906;10.908;2022-11-04T03:11:40;11.20;99.90
1994;DHT22;998;49.906;10.908;2022-11-04T03:14:13;11.10;99.90
1994;DHT22;998;49.906;10.908;2022-11-04T03:16:45;11.10;99.90
1994;DHT22;998;49.906;10.908;2022-11-04T03:19:17;11.10;99.90
1994;DHT22;998;49.906;10.908;2022-11-04T03:21:49;11.10;99.90
1994;DHT22;998;49.906;10.908;2022-11-04T03:24:17;11.10;99.90
1994;DHT22;998;49.906;10.908;2022-11-04T03:26:48;11.10;99.90
1994;DHT22;998;49.906;10.908;2022-11-04T03:29:22;11.00;99.90
1994;DHT22;998;49.906;10.908;2022-11-04T03:32:04;11.00;99.90
1994;DHT22;998;49.906;10.908;2022-11-04T03:34:32;11.00;99.90
1994;DHT22;998;49.906;10.908;2022-11-04T03:37:00;11.00;99.90
1994;DHT22;998;49.906;10.908;2022-11-04T03:39:27;11.00;99.90
1994;DHT22;998;49.906;10.908;2022-11-04T03:41:56;11.00;99.90
1994;DHT22;998;49.906;10.908;2022-11-04T03:44:25;11.10;99.90
1994;DHT22;998;49.906;10.908;2022-11-04T03:46:54;11.10;99.90
1994;DHT22;998;49.906;10.908;2022-11-04T03:49:22;11.00;99.90
1994;DHT22;998;49.906;10.908;2022-11-04T03:51:51;11.00;99.90
1994;DHT22;998;49.906;10.908;2022-11-04T03:54:19;11.00;99.90
1994;DHT22;998;49.906;10.908;2022-11-04T04:00:11;11.00;99.90
1994;DHT22;998;49.906;10.908;2022-11-04T04:02:48;11.00;99.90
1994;DHT22;998;49.906;10.908;2022-11-04T04:05:22;11.00;99.90
1994;DHT22;998;49.906;10.908;2022-11-04T04:07:55;11.00;99.90
1994;DHT22;998;49.906;10.908;2022-11-04T04:10:28;11.00;99.90
1994;DHT22;998;49.906;10.908;2022-11-04T04:13:18;11.00;99.90
1994;DHT22;998;49.906;10.908;2022-11-04T04:15:51;10.90;99.90
1994;DHT22;998;49.906;10.908;2022-11-04T04:18:25;10.90;99.90
1994;DHT22;998;49.906;10.908;2022-11-04T04:20:57;10.90;99.90
1994;DHT22;998;49.906;10.908;2022-11-04T04:23:28;10.90;99.90
1994;DHT22;998;49.906;10.908;2022-11-04T04:26:16;11.00;99.90
1994;DHT22;998;49.906;10.908;2022-11-04T04:29:02;10.90;99.90
1994;DHT22;998;49.906;10.908;2022-11-04T04:31:34;10.90;99.90
1994;DHT22;998;49.906;10.908;2022-11-04T04:34:20;11.00;99.90
1994;DHT22;998;49.906;10.908;2022-11-04T04:36:52;10.90;99.90
1994;DHT22;998;49.906;10.908;2022-11-04T04:39:23;10.90;99.90
1994;DHT22;998;49.906;10.908;2022-11-04T04:42:08;10.90;99.90
1994;DHT22;998;49.906;10.908;2022-11-04T04:44:54;10.90;99.90
1994;DHT22;998;49.906;10.908;2022-11-04T04:47:43;10.90;99.90
1994;DHT22;998;49.906;10.908;2022-11-04T04:50:15;10.90;99.90
1994;DHT22;998;49.906;10.908;2022-11-04T04:52:45;10.90;99.90
1994;DHT22;998;49.906;10.908;2022-11-04T04:55:13;10.90;99.90
1994;DHT22;998;49.906;10.908;2022-11-04T04:57:41;10.90;99.90
1994;DHT22;998;49.906;10.908;2022-11-04T05:00:12;10.90;99.90
1994;DHT22;998;49.906;10.908;2022-11-04T05:02:40;10.90;99.90
1994;DHT22;998;49.906;10.908;2022-11-04T05:05:08;10.90;99.90
1994;DHT22;998;49.906;10.908;2022-11-04T05:07:36;10.90;99.90
1994;DHT22;998;49.906;10.908;2022-11-04T05:10:05;10.90;99.90
1994;DHT22;998;49.906;10.908;2022-11-04T05:12:34;10.90;99.90
1994;DHT22;998;49.906;10.908;2022-11-04T05:15:19;10.90;99.90
1994;DHT22;998;49.906;10.908;2022-11-04T05:17:46;10.90;99.90
1994;DHT22;998;49.906;10.908;2022-11-04T05:20:14;10.90;99.90
1994;DHT22;998;49.906;10.908;2022-11-04T05:22:42;10.90;99.90
1994;DHT22;998;49.906;10.908;2022-11-04T05:25:10;11.00;99.90
1994;DHT22;998;49.906;10.908;2022-11-04T05:27:37;11.00;99.90
1994;DHT22;998;49.906;10.908;2022-11-04T05:30:06;11.00;99.90
1994;DHT22;998;49.906;10.908;2022-11-04T05:32:33;10.90;99.90
1994;DHT22;998;49.906;10.908;2022-11-04T05:35:01;11.00;99.90
1994;DHT22;998;49.906;10.908;2022-11-04T05:37:28;10.90;99.90
1994;DHT22;998;49.906;10.908;2022-11-04T05:39:57;11.00;99.90
1994;DHT22;998;49.906;10.908;2022-11-04T05:42:24;10.90;99.90
1994;DHT22;998;49.906;10.908;2022-11-04T05:44:51;11.00;99.90
1994;DHT22;998;49.906;10.908;2022-11-04T05:47:19;11.00;99.90
1994;DHT22;998;49.906;10.908;2022-11-04T05:49:46;11.00;99.90
1994;DHT22;998;49.906;10.908;2022-11-04T05:52:13;11.00;99.90
1994;DHT22;998;49.906;10.908;2022-11-04T05:54:41;11.00;99.90
1994;DHT22;998;49.906;10.908;2022-11-04T05:57:10;11.00;99.90
1994;DHT22;998;49.906;10.908;2022-11-04T05:59:37;11.00;99.90
1994;DHT22;998;49.906;10.908;2022-11-04T06:02:05;11.00;99.90
1994;DHT22;998;49.906;10.908;2022-11-04T06:04:33;11.00;99.90
1994;DHT22;998;49.906;10.908;2022-11-04T06:07:00;10.90;99.90
1994;DHT22;998;49.906;10.908;2022-11-04T06:09:28;10.90;99.90
1994;DHT22;998;49.906;10.908;2022-11-04T06:12:06;11.00;99.90
1994;DHT22;998;49.906;10.908;2022-11-04T06:14:35;11.00;99.90
1994;DHT22;998;49.906;10.908;2022-11-04T06:17:03;11.00;99.90
1994;DHT22;998;49.906;10.908;2022-11-04T06:19:31;11.00;99.90
1994;DHT22;998;49.906;10.908;2022-11-04T06:21:59;11.00;99.90
1994;DHT22;998;49.906;10.908;2022-11-04T06:24:26;11.00;99.90
1994;DHT22;998;49.906;10.908;2022-11-04T06:26:54;11.00;99.90
1994;DHT22;998;49.906;10.908;2022-11-04T06:29:21;11.00;99.90
1994;DHT22;998;49.906;10.908;2022-11-04T06:31:50;11.00;99.90
1994;DHT22;998;49.906;10.908;2022-11-04T06:34:17;11.00;99.90
1994;DHT22;998;49.906;10.908;2022-11-04T06:36:45;11.00;99.90
1994;DHT22;998;49.906;10.908;2022-11-04T06:39:12;11.00;99.90
1994;DHT22;998;49.906;10.908;2022-11-04T06:41:40;11.00;99.90
1994;DHT22;998;49.906;10.908;2022-11-04T06:44:07;11.00;99.90
1994;DHT22;998;49.906;10.908;2022-11-04T06:46:36;11.00;99.90
1994;DHT22;998;49.906;10.908;2022-11-04T06:49:06;11.00;99.90
1994;DHT22;998;49.906;10.908;2022-11-04T06:51:35;11.00;99.90
1994;DHT22;998;49.906;10.908;2022-11-04T06:54:03;10.90;99.90
1994;DHT22;998;49.906;10.908;2022-11-04T06:56:31;10.90;99.90
1994;DHT22;998;49.906;10.908;2022-11-04T06:58:58;10.80;99.90
1994;DHT22;998;49.906;10.908;2022-11-04T07:01:27;10.90;99.90
1994;DHT22;998;49.906;10.908;2022-11-04T07:03:56;10.90;99.90
1994;DHT22;998;49.906;10.908;2022-11-04T07:06:26;10.80;99.90
1994;DHT22;998;49.906;10.908;2022-11-04T07:08:55;10.80;99.90
1994;DHT22;998;49.906;10.908;2022-11-04T07:11:23;10.80;99.90
1994;DHT22;998;49.906;10.908;2022-11-04T07:13:51;10.80;99.90
1994;DHT22;998;49.906;10.908;2022-11-04T07:16:18;10.80;99.90
1994;DHT22;998;49.906;10.908;2022-11-04T07:18:46;10.80;99.90
1994;DHT22;998;49.906;10.908;2022-11-04T07:21:14;10.90;99.90
1994;DHT22;998;49.906;10.908;2022-11-04T07:23:43;10.90;99.90
1994;DHT22;998;49.906;10.908;2022-11-04T07:26:11;10.90;99.90
1994;DHT22;998;49.906;10.908;2022-11-04T07:28:38;10.90;99.90
1994;DHT22;998;49.906;10.908;2022-11-04T07:31:07;10.80;99.90
1994;DHT22;998;49.906;10.908;2022-11-04T07:33:36;10.80;99.90
1994;DHT22;998;49.906;10.908;2022-11-04T07:36:04;10.80;99.90
1994;DHT22;998;49.906;10.908;2022-11-04T07:38:32;10.90;99.90
1994;DHT22;998;49.906;10.908;2022-11-04T07:41:01;10.90;99.90
1994;DHT22;998;49.906;10.908;2022-11-04T07:43:28;10.90;99.90
1994;DHT22;998;49.906;10.908;2022-11-04T07:46:00;10.90;99.90
1994;DHT22;998;49.906;10.908;2022-11-04T07:48:28;10.90;99.90
1994;DHT22;998;49.906;10.908;2022-11-04T07:50:56;10.90;99.90
1994;DHT22;998;49.906;10.908;2022-11-04T07:53:24;10.90;99.90
1994;DHT22;998;49.906;10.908;2022-11-04T07:55:52;11.00;99.90
1994;DHT22;998;49.906;10.908;2022-11-04T07:58:21;11.00;99.90
1994;DHT22;998;49.906;10.908;2022-11-04T08:00:49;10.90;99.90
1994;DHT22;998;49.906;10.908;2022-11-04T08:03:17;10.90;99.90
1994;DHT22;998;49.906;10.908;2022-11-04T08:05:44;11.00;99.90
1994;DHT22;998;49.906;10.908;2022-11-04T08:08:11;11.00;99.90
1994;DHT22;998;49.906;10.908;2022-11-04T08:10:39;11.00;99.90
1994;DHT22;998;49.906;10.908;2022-11-04T08:13:06;11.00;99.90
1994;DHT22;998;49.906;10.908;2022-11-04T08:15:36;11.00;99.90
1994;DHT22;998;49.906;10.908;2022-11-04T08:18:04;11.00;99.90
1994;DHT22;998;49.906;10.908;2022-11-04T08:20:31;11.00;99.90
1994;DHT22;998;49.906;10.908;2022-11-04T08:22:59;10.90;99.90
1994;DHT22;998;49.906;10.908;2022-11-04T08:25:26;10.90;99.90
1994;DHT22;998;49.906;10.908;2022-11-04T08:27:53;10.90;99.90
1994;DHT22;998;49.906;10.908;2022-11-04T08:30:22;11.00;99.90
1994;DHT22;998;49.906;10.908;2022-11-04T08:32:51;11.00;99.90
1994;DHT22;998;49.906;10.908;2022-11-04T08:35:18;10.90;99.90
1994;DHT22;998;49.906;10.908;2022-11-04T08:37:45;10.90;99.90
1994;DHT22;998;49.906;10.908;2022-11-04T08:40:13;10.90;99.90
1994;DHT22;998;49.906;10.908;2022-11-04T08:42:40;10.80;99.90
1994;DHT22;998;49.906;10.908;2022-11-04T08:45:09;10.90;99.90
1994;DHT22;998;49.906;10.908;2022-11-04T08:47:37;10.80;99.90
1994;DHT22;998;49.906;10.908;2022-11-04T08:50:07;10.80;99.90
1994;DHT22;998;49.906;10.908;2022-11-04T08:52:36;10.70;99.90
1994;DHT22;998;49.906;10.908;2022-11-04T08:55:05;10.70;99.90
1994;DHT22;998;49.906;10.908;2022-11-04T08:57:32;10.60;99.90
1994;DHT22;998;49.906;10.908;2022-11-04T09:00:00;10.60;99.90
1994;DHT22;998;49.906;10.908;2022-11-04T09:02:27;10.70;99.90
1994;DHT22;998;49.906;10.908;2022-11-04T09:04:55;10.60;99.90
1994;DHT22;998;49.906;10.908;2022-11-04T09:07:24;10.60;99.90
1994;DHT22;998;49.906;10.908;2022-11-04T09:09:51;10.60;99.90
1994;DHT22;998;49.906;10.908;2022-11-04T09:12:18;10.60;99.90
1994;DHT22;998;49.906;10.908;2022-11-04T09:14:46;10.60;99.90
1994;DHT22;998;49.906;10.908;2022-11-04T09:17:13;10.60;99.90
1994;DHT22;998;49.906;10.908;2022-11-04T09:19:41;10.60;99.90
1994;DHT22;998;49.906;10.908;2022-11-04T09:22:08;10.60;99.90
1994;DHT22;998;49.906;10.908;2022-11-04T09:24:37;10.60;99.90
1994;DHT22;998;49.906;10.908;2022-11-04T09:27:05;10.60;99.90
1994;DHT22;998;49.906;10.908;2022-11-04T09:29:32;10.60;99.90
1994;DHT22;998;49.906;10.908;2022-11-04T09:32:01;10.60;99.90
1994;DHT22;998;49.906;10.908;2022-11-04T09:34:28;10.60;99.90
1994;DHT22;998;49.906;10.908;2022-11-04T09:36:56;10.60;99.90
1994;DHT22;998;49.906;10.908;2022-11-04T09:39:25;10.70;99.90
1994;DHT22;998;49.906;10.908;2022-11-04T09:42:04;10.80;99.90
1994;DHT22;998;49.906;10.908;2022-11-04T09:44:45;10.80;99.90
1994;DHT22;998;49.906;10.908;2022-11-04T09:47:15;10.80;99.90
1994;DHT22;998;49.906;10.908;2022-11-04T09:49:44;10.80;99.90
1994;DHT22;998;49.906;10.908;2022-11-04T09:52:17;10.80;99.90
1994;DHT22;998;49.906;10.908;2022-11-04T09:54:52;10.80;99.90
1994;DHT22;998;49.906;10.908;2022-11-04T09:57:22;10.80;99.90
1994;DHT22;998;49.906;10.908;2022-11-04T09:59:50;10.90;99.90
1994;DHT22;998;49.906;10.908;2022-11-04T10:02:28;10.90;99.90
1994;DHT22;998;49.906;10.908;2022-11-04T10:05:03;10.80;99.90
1994;DHT22;998;49.906;10.908;2022-11-04T10:07:44;10.80;99.90
1994;DHT22;998;49.906;10.908;2022-11-04T10:10:18;10.80;99.90
1994;DHT22;998;49.906;10.908;2022-11-04T10:12:56;10.90;99.90
1994;DHT22;998;49.906;10.908;2022-11-04T10:15:57;10.80;99.90
1994;DHT22;998;49.906;10.908;2022-11-04T10:18:49;10.90;99.90
1994;DHT22;998;49.906;10.908;2022-11-04T10:21:29;10.80;99.90
1994;DHT22;998;49.906;10.908;2022-11-04T10:24:06;10.90;99.90
1994;DHT22;998;49.906;10.908;2022-11-04T10:26:40;10.90;99.90
1994;DHT22;998;49.906;10.908;2022-11-04T10:29:14;10.90;99.90
1994;DHT22;998;49.906;10.908;2022-11-04T10:31:44;10.90;99.90
1994;DHT22;998;49.906;10.908;2022-11-04T10:34:23;11.00;99.90
1994;DHT22;998;49.906;10.908;2022-11-04T10:36:54;11.00;99.90
1994;DHT22;998;49.906;10.908;2022-11-04T10:39:26;11.00;99.90
1994;DHT22;998;49.906;10.908;2022-11-04T10:41:54;11.10;99.90
1994;DHT22;998;49.906;10.908;2022-11-04T10:44:26;11.10;99.90
1994;DHT22;998;49.906;10.908;2022-11-04T10:47:03;11.10;99.90
1994;DHT22;998;49.906;10.908;2022-11-04T10:49:54;11.10;99.90
1994;DHT22;998;49.906;10.908;2022-11-04T10:52:23;11.20;99.90
1994;DHT22;998;49.906;10.908;2022-11-04T10:54:51;11.20;99.90
1994;DHT22;998;49.906;10.908;2022-11-04T10:57:20;11.30;99.90
1994;DHT22;998;49.906;10.908;2022-11-04T10:59:54;11.30;99.90
1994;DHT22;998;49.906;10.908;2022-11-04T11:02:44;11.30;99.90
1994;DHT22;998;49.906;10.908;2022-11-04T11:05:19;11.30;99.90
1994;DHT22;998;49.906;10.908;2022-11-04T11:07:49;11.40;99.90
1994;DHT22;998;49.906;10.908;2022-11-04T11:10:20;11.40;99.90
1994;DHT22;998;49.906;10.908;2022-11-04T11:12:55;11.40;99.90
1994;DHT22;998;49.906;10.908;2022-11-04T11:15:32;11.50;99.90
1994;DHT22;998;49.906;10.908;2022-11-04T11:18:12;11.50;99.90
1994;DHT22;998;49.906;10.908;2022-11-04T11:20:41;11.50;99.90
1994;DHT22;998;49.906;10.908;2022-11-04T11:26:17;11.60;99.90
1994;DHT22;998;49.906;10.908;2022-11-04T11:28:50;11.60;99.90
1994;DHT22;998;49.906;10.908;2022-11-04T11:31:23;11.60;99.90
1994;DHT22;998;49.906;10.908;2022-11-04T11:33:54;11.60;99.90
1994;DHT22;998;49.906;10.908;2022-11-04T11:36:24;11.70;99.90
1994;DHT22;998;49.906;10.908;2022-11-04T11:38:59;11.70;99.90
1994;DHT22;998;49.906;10.908;2022-11-04T11:41:29;11.80;99.90
1994;DHT22;998;49.906;10.908;2022-11-04T11:44:06;11.80;99.90
1994;DHT22;998;49.906;10.908;2022-11-04T11:46:49;11.90;99.90
1994;DHT22;998;49.906;10.908;2022-11-04T11:49:24;12.00;99.90
1994;DHT22;998;49.906;10.908;2022-11-04T11:51:54;12.00;99.90
1994;DHT22;998;49.906;10.908;2022-11-04T11:54:27;12.00;99.90
1994;DHT22;998;49.906;10.908;2022-11-04T11:57:00;12.00;99.90
1994;DHT22;998;49.906;10.908;2022-11-04T11:59:36;12.00;99.90
1994;DHT22;998;49.906;10.908;2022-11-04T12:02:24;12.10;99.90
1994;DHT22;998;49.906;10.908;2022-11-04T12:04:54;12.00;99.90
1994;DHT22;998;49.906;10.908;2022-11-04T12:07:28;12.00;99.90
1994;DHT22;998;49.906;10.908;2022-11-04T12:10:06;12.10;99.90
1994;DHT22;998;49.906;10.908;2022-11-04T12:12:45;12.10;99.90
1994;DHT22;998;49.906;10.908;2022-11-04T12:15:36;12.10;99.90
1994;DHT22;998;49.906;10.908;2022-11-04T12:18:19;12.10;99.90
1994;DHT22;998;49.906;10.908;2022-11-04T12:20:57;12.10;99.90
1994;DHT22;998;49.906;10.908;2022-11-04T12:23:35;12.10;99.90
1994;DHT22;998;49.906;10.908;2022-11-04T12:26:12;12.20;99.90
1994;DHT22;998;49.906;10.908;2022-11-04T12:28:58;12.20;99.90
1994;DHT22;998;49.906;10.908;2022-11-04T12:31:34;12.30;99.90
1994;DHT22;998;49.906;10.908;2022-11-04T12:34:13;12.30;99.90
1994;DHT22;998;49.906;10.908;2022-11-04T12:36:57;12.40;99.90
1994;DHT22;998;49.906;10.908;2022-11-04T12:39:42;12.40;99.90
1994;DHT22;998;49.906;10.908;2022-11-04T12:42:19;12.30;99.90
1994;DHT22;998;49.906;10.908;2022-11-04T12:44:55;12.30;99.90
1994;DHT22;998;49.906;10.908;2022-11-04T12:47:33;12.30;99.90
1994;DHT22;998;49.906;10.908;2022-11-04T12:50:15;12.40;99.90
1994;DHT22;998;49.906;10.908;2022-11-04T12:53:01;12.40;99.90
1994;DHT22;998;49.906;10.908;2022-11-04T12:55:39;12.40;99.90
1994;DHT22;998;49.906;10.908;2022-11-04T12:58:21;12.30;99.90
1994;DHT22;998;49.906;10.908;2022-11-04T13:00:59;12.30;99.90
1994;DHT22;998;49.906;10.908;2022-11-04T13:03:32;12.30;99.90
1994;DHT22;998;49.906;10.908;2022-11-04T13:06:04;12.30;99.90
1994;DHT22;998;49.906;10.908;2022-11-04T13:08:38;12.20;99.90
1994;DHT22;998;49.906;10.908;2022-11-04T13:11:10;12.20;99.90
1994;DHT22;998;49.906;10.908;2022-11-04T13:13:52;12.20;99.90
1994;DHT22;998;49.906;10.908;2022-11-04T13:16:22;12.10;99.90
1994;DHT22;998;49.906;10.908;2022-11-04T13:18:50;12.10;99.90
1994;DHT22;998;49.906;10.908;2022-11-04T13:21:21;12.10;99.90
1994;DHT22;998;49.906;10.908;2022-11-04T13:23:54;12.10;99.90
1994;DHT22;998;49.906;10.908;2022-11-04T13:26:24;12.10;99.90
1994;DHT22;998;49.906;10.908;2022-11-04T13:28:56;12.10;99.90
1994;DHT22;998;49.906;10.908;2022-11-04T13:31:35;12.10;99.90
1994;DHT22;998;49.906;10.908;2022-11-04T13:34:10;12.10;99.90
1994;DHT22;998;49.906;10.908;2022-11-04T13:36:45;12.00;99.90
1994;DHT22;998;49.906;10.908;2022-11-04T13:39:19;12.00;99.90
1994;DHT22;998;49.906;10.908;2022-11-04T13:42:27;12.00;99.90
1994;DHT22;998;49.906;10.908;2022-11-04T13:45:03;12.00;99.90
1994;DHT22;998;49.906;10.908;2022-11-04T13:47:35;12.00;99.90
1994;DHT22;998;49.906;10.908;2022-11-04T13:50:05;12.00;99.90
1994;DHT22;998;49.906;10.908;2022-11-04T13:52:47;12.00;99.90
1994;DHT22;998;49.906;10.908;2022-11-04T13:55:17;12.00;99.90
1994;DHT22;998;49.906;10.908;2022-11-04T13:57:52;12.00;99.90
1994;DHT22;998;49.906;10.908;2022-11-04T14:00:22;12.00;99.90
1994;DHT22;998;49.906;10.908;2022-11-04T14:02:51;12.00;99.90
1994;DHT22;998;49.906;10.908;2022-11-04T14:08:21;12.00;99.90
1994;DHT22;998;49.906;10.908;2022-11-04T14:11:07;12.00;99.90
1994;DHT22;998;49.906;10.908;2022-11-04T14:13:46;11.90;99.90
1994;DHT22;998;49.906;10.908;2022-11-04T14:16:39;11.90;99.90
1994;DHT22;998;49.906;10.908;2022-11-04T14:22:47;11.90;99.90
1994;DHT22;998;49.906;10.908;2022-11-04T14:25:28;11.90;99.90
1994;DHT22;998;49.906;10.908;2022-11-04T14:27:59;11.90;99.90
1994;DHT22;998;49.906;10.908;2022-11-04T14:30:45;11.90;99.90
1994;DHT22;998;49.906;10.908;2022-11-04T14:33:28;11.90;99.90
1994;DHT22;998;49.906;10.908;2022-11-04T14:36:13;11.90;99.90
1994;DHT22;998;49.906;10.908;2022-11-04T14:38:42;11.90;99.90
1994;DHT22;998;49.906;10.908;2022-11-04T14:41:15;11.90;99.90
1994;DHT22;998;49.906;10.908;2022-11-04T14:43:47;11.90;99.90
1994;DHT22;998;49.906;10.908;2022-11-04T14:46:19;11.90;99.90
1994;DHT22;998;49.906;10.908;2022-11-04T14:48:50;11.90;99.90
1994;DHT22;998;49.906;10.908;2022-11-04T14:51:24;11.90;99.90
1994;DHT22;998;49.906;10.908;2022-11-04T14:53:58;11.80;99.90
1994;DHT22;998;49.906;10.908;2022-11-04T14:56:28;11.90;99.90
1994;DHT22;998;49.906;10.908;2022-11-04T14:58:57;11.80;99.90
1994;DHT22;998;49.906;10.908;2022-11-04T15:01:26;11.80;99.90
1994;DHT22;998;49.906;10.908;2022-11-04T15:03:55;11.80;99.90
1994;DHT22;998;49.906;10.908;2022-11-04T15:06:25;11.80;99.90
1994;DHT22;998;49.906;10.908;2022-11-04T15:08:53;11.80;99.90
1994;DHT22;998;49.906;10.908;2022-11-04T15:11:23;11.80;99.90
1994;DHT22;998;49.906;10.908;2022-11-04T15:14:16;11.80;99.90
1994;DHT22;998;49.906;10.908;2022-11-04T15:16:45;11.80;99.90
1994;DHT22;998;49.906;10.908;2022-11-04T15:19:19;11.80;99.90
1994;DHT22;998;49.906;10.908;2022-11-04T15:21:51;11.80;99.90
1994;DHT22;998;49.906;10.908;2022-11-04T15:24:18;11.80;99.90
1994;DHT22;998;49.906;10.908;2022-11-04T15:26:49;11.80;99.90
1994;DHT22;998;49.906;10.908;2022-11-04T15:29:21;11.80;99.90
1994;DHT22;998;49.906;10.908;2022-11-04T15:31:55;11.80;99.90
1994;DHT22;998;49.906;10.908;2022-11-04T15:34:23;11.80;99.90
1994;DHT22;998;49.906;10.908;2022-11-04T15:36:54;11.80;99.90
1994;DHT22;998;49.906;10.908;2022-11-04T15:39:25;11.70;99.90
1994;DHT22;998;49.906;10.908;2022-11-04T15:41:57;11.80;99.90
1994;DHT22;998;49.906;10.908;2022-11-04T15:44:47;11.80;99.90
1994;DHT22;998;49.906;10.908;2022-11-04T15:47:24;11.70;99.90
1994;DHT22;998;49.906;10.908;2022-11-04T15:49:53;11.70;99.90
1994;DHT22;998;49.906;10.908;2022-11-04T15:52:22;11.70;99.90
1994;DHT22;998;49.906;10.908;2022-11-04T15:54:51;11.70;99.90
1994;DHT22;998;49.906;10.908;2022-11-04T15:57:21;11.70;99.90
1994;DHT22;998;49.906;10.908;2022-11-04T15:59:54;11.70;99.90
1994;DHT22;998;49.906;10.908;2022-11-04T16:02:26;11.60;99.90
1994;DHT22;998;49.906;10.908;2022-11-04T16:05:05;11.60;99.90
1994;DHT22;998;49.906;10.908;2022-11-04T16:07:35;11.60;99.90
1994;DHT22;998;49.906;10.908;2022-11-04T16:10:21;11.60;99.90
1994;DHT22;998;49.906;10.908;2022-11-04T16:12:53;11.50;99.90
1994;DHT22;998;49.906;10.908;2022-11-04T16:15:38;11.50;99.90
1994;DHT22;998;49.906;10.908;2022-11-04T16:18:20;11.50;99.90
1994;DHT22;998;49.906;10.908;2022-11-04T16:20:49;11.40;99.90
1994;DHT22;998;49.906;10.908;2022-11-04T16:23:20;11.50;99.90
1994;DHT22;998;49.906;10.908;2022-11-04T16:25:55;11.40;99.90
1994;DHT22;998;49.906;10.908;2022-11-04T16:28:23;11.40;99.90
1994;DHT22;998;49.906;10.908;2022-11-04T16:30:59;11.40;99.90
1994;DHT22;998;49.906;10.908;2022-11-04T16:33:26;11.40;99.90
1994;DHT22;998;49.906;10.908;2022-11-04T16:35:54;11.40;99.90
1994;DHT22;998;49.906;10.908;2022-11-04T16:38:21;11.40;99.90
1994;DHT22;998;49.906;10.908;2022-11-04T16:40:49;11.40;99.90
1994;DHT22;998;49.906;10.908;2022-11-04T16:43:19;11.40;99.90
1994;DHT22;998;49.906;10.908;2022-11-04T16:45:48;11.30;99.90
1994;DHT22;998;49.906;10.908;2022-11-04T16:48:18;11.30;99.90
1994;DHT22;998;49.906;10.908;2022-11-04T16:50:46;11.30;99.90